Sennybridge, United Kingdom
Current Conditions -  °F | °C
As of 3:50 AM on Friday 31 Oct 2014 (Local Time) from EGOP Reporting Station
Broken Clouds Broken Clouds  
Wind Chill: 61°   Ceiling: 1500
Heat Index: 61°   Visibility: 5mi
Dew Point: 59°   Wind: 23mph
Humidity: 94%   Direction: 170°S
Pressure: 29.91"   Gusts: NA
Location:  52.07°N, 3.62°W
Report Text: EGOP 310350Z AUTO 17020KT 8000 // BKN015/// BKN023/// 16/15 Q1013
Loading
Personal Weather Stations






























Interactive Weather Map
Tropical Storm Tracking
New forecast layout! Learn more

10-Day Weather Forecast

Advertisements
Track Severe Weather on mobile